sensor_id;sensor_type;location;lat;lon;timestamp;pressure;altitude;pressure_sealevel;temperature;humidity
69850;BME280;57144;39.652;-75.770;2022-07-10T00:00:12;100902.39;;;19.53;100.00
69850;BME280;57144;39.652;-75.770;2022-07-10T00:02:49;100905.44;;;19.55;100.00
69850;BME280;57144;39.652;-75.770;2022-07-10T00:05:10;100909.42;;;19.32;100.00
69850;BME280;57144;39.652;-75.770;2022-07-10T00:10:11;100916.79;;;19.38;100.00
69850;BME280;57144;39.652;-75.770;2022-07-10T00:12:50;100923.01;;;19.36;100.00
69850;BME280;57144;39.652;-75.770;2022-07-10T00:15:24;100923.58;;;19.20;100.00
69850;BME280;57144;39.652;-75.770;2022-07-10T00:17:43;100918.78;;;19.40;100.00
69850;BME280;57144;39.652;-75.770;2022-07-10T00:20:24;100910.04;;;19.49;100.00
69850;BME280;57144;39.652;-75.770;2022-07-10T00:22:46;100901.66;;;19.44;100.00
69850;BME280;57144;39.652;-75.770;2022-07-10T00:25:29;100898.82;;;19.50;100.00
69850;BME280;57144;39.652;-75.770;2022-07-10T00:27:45;100901.19;;;19.13;100.00
69850;BME280;57144;39.652;-75.770;2022-07-10T00:30:16;100898.71;;;18.58;100.00
69850;BME280;57144;39.652;-75.770;2022-07-10T00:32:46;100900.80;;;19.04;100.00
69850;BME280;57144;39.652;-75.770;2022-07-10T00:35:31;100904.21;;;18.98;100.00
69850;BME280;57144;39.652;-75.770;2022-07-10T00:37:47;100907.95;;;18.84;100.00
69850;BME280;57144;39.652;-75.770;2022-07-10T00:40:28;100911.88;;;19.08;100.00
69850;BME280;57144;39.652;-75.770;2022-07-10T00:45:24;100915.46;;;19.20;100.00
69850;BME280;57144;39.652;-75.770;2022-07-10T00:48:06;100921.55;;;19.23;100.00
69850;BME280;57144;39.652;-75.770;2022-07-10T00:50:20;100929.72;;;19.12;100.00
69850;BME280;57144;39.652;-75.770;2022-07-10T00:52:51;100932.62;;;19.22;100.00
69850;BME280;57144;39.652;-75.770;2022-07-10T00:55:21;100928.96;;;19.25;100.00
69850;BME280;57144;39.652;-75.770;2022-07-10T00:58:01;100925.70;;;19.15;100.00
69850;BME280;57144;39.652;-75.770;2022-07-10T01:00:31;100926.75;;;19.06;100.00
69850;BME280;57144;39.652;-75.770;2022-07-10T01:03:00;100926.72;;;18.97;100.00
69850;BME280;57144;39.652;-75.770;2022-07-10T01:05:32;100931.19;;;19.19;100.00
69850;BME280;57144;39.652;-75.770;2022-07-10T01:07:59;100932.94;;;19.36;100.00
69850;BME280;57144;39.652;-75.770;2022-07-10T01:10:25;100935.84;;;19.17;100.00
69850;BME280;57144;39.652;-75.770;2022-07-10T01:13:04;100940.98;;;19.19;100.00
69850;BME280;57144;39.652;-75.770;2022-07-10T01:18:06;100940.40;;;18.89;100.00
69850;BME280;57144;39.652;-75.770;2022-07-10T01:20:30;100946.58;;;19.24;100.00
69850;BME280;57144;39.652;-75.770;2022-07-10T01:22:57;100950.41;;;19.18;100.00
69850;BME280;57144;39.652;-75.770;2022-07-10T01:25:28;100951.87;;;19.13;100.00
69850;BME280;57144;39.652;-75.770;2022-07-10T01:28:09;100949.92;;;19.12;100.00
69850;BME280;57144;39.652;-75.770;2022-07-10T01:30:29;100945.12;;;19.14;100.00
69850;BME280;57144;39.652;-75.770;2022-07-10T01:32:59;100941.38;;;19.16;100.00
69850;BME280;57144;39.652;-75.770;2022-07-10T01:35:30;100942.05;;;19.12;100.00
69850;BME280;57144;39.652;-75.770;2022-07-10T01:38:15;100946.51;;;19.04;100.00
69850;BME280;57144;39.652;-75.770;2022-07-10T01:40:43;100948.55;;;18.97;100.00
69850;BME280;57144;39.652;-75.770;2022-07-10T01:43:02;100946.06;;;19.06;100.00
69850;BME280;57144;39.652;-75.770;2022-07-10T01:45:41;100942.97;;;19.09;100.00
69850;BME280;57144;39.652;-75.770;2022-07-10T01:48:05;100943.54;;;19.33;100.00
69850;BME280;57144;39.652;-75.770;2022-07-10T01:50:33;100946.21;;;19.03;100.00
69850;BME280;57144;39.652;-75.770;2022-07-10T01:53:09;100945.52;;;18.86;100.00
69850;BME280;57144;39.652;-75.770;2022-07-10T01:55:35;100941.98;;;18.74;100.00
69850;BME280;57144;39.652;-75.770;2022-07-10T01:58:25;100941.21;;;18.93;100.00
69850;BME280;57144;39.652;-75.770;2022-07-10T02:00:41;100939.69;;;18.59;100.00
69850;BME280;57144;39.652;-75.770;2022-07-10T02:03:07;100942.47;;;19.00;100.00
69850;BME280;57144;39.652;-75.770;2022-07-10T02:05:37;100948.38;;;18.86;100.00
69850;BME280;57144;39.652;-75.770;2022-07-10T02:08:08;100959.13;;;18.82;100.00
69850;BME280;57144;39.652;-75.770;2022-07-10T02:10:38;100959.24;;;18.81;100.00
69850;BME280;57144;39.652;-75.770;2022-07-10T02:15:50;100951.13;;;18.68;100.00
69850;BME280;57144;39.652;-75.770;2022-07-10T02:18:22;100951.39;;;18.65;100.00
69850;BME280;57144;39.652;-75.770;2022-07-10T02:20:41;100953.86;;;18.50;100.00
69850;BME280;57144;39.652;-75.770;2022-07-10T02:23:17;100953.94;;;18.55;100.00
69850;BME280;57144;39.652;-75.770;2022-07-10T02:25:42;100954.34;;;18.73;100.00
69850;BME280;57144;39.652;-75.770;2022-07-10T02:28:17;100955.60;;;18.67;100.00
69850;BME280;57144;39.652;-75.770;2022-07-10T02:30:48;100957.52;;;18.70;100.00
69850;BME280;57144;39.652;-75.770;2022-07-10T02:33:13;100963.10;;;18.70;100.00
69850;BME280;57144;39.652;-75.770;2022-07-10T02:35:44;100963.58;;;17.95;100.00
69850;BME280;57144;39.652;-75.770;2022-07-10T02:38:14;100951.18;;;18.36;100.00
69850;BME280;57144;39.652;-75.770;2022-07-10T02:40:46;100950.86;;;18.56;100.00
69850;BME280;57144;39.652;-75.770;2022-07-10T02:43:16;100950.44;;;18.41;100.00
69850;BME280;57144;39.652;-75.770;2022-07-10T02:45:46;100949.60;;;18.62;100.00
69850;BME280;57144;39.652;-75.770;2022-07-10T02:48:17;100946.14;;;18.57;100.00
69850;BME280;57144;39.652;-75.770;2022-07-10T02:50:52;100950.78;;;18.64;100.00
69850;BME280;57144;39.652;-75.770;2022-07-10T02:53:18;100950.33;;;18.66;100.00
69850;BME280;57144;39.652;-75.770;2022-07-10T02:55:49;100946.57;;;18.39;100.00
69850;BME280;57144;39.652;-75.770;2022-07-10T02:58:25;100951.91;;;18.65;100.00
69850;BME280;57144;39.652;-75.770;2022-07-10T03:00:50;100954.99;;;18.61;100.00
69850;BME280;57144;39.652;-75.770;2022-07-10T03:03:20;100957.68;;;18.78;100.00
69850;BME280;57144;39.652;-75.770;2022-07-10T03:06:01;100958.01;;;18.89;100.00
69850;BME280;57144;39.652;-75.770;2022-07-10T03:08:21;100956.98;;;18.60;100.00
69850;BME280;57144;39.652;-75.770;2022-07-10T03:10:59;100949.67;;;18.63;100.00
69850;BME280;57144;39.652;-75.770;2022-07-10T03:13:28;100948.57;;;18.88;100.00
69850;BME280;57144;39.652;-75.770;2022-07-10T03:16:04;100949.08;;;18.67;100.00
69850;BME280;57144;39.652;-75.770;2022-07-10T03:18:38;100951.35;;;18.69;100.00
69850;BME280;57144;39.652;-75.770;2022-07-10T03:23:46;100949.47;;;18.61;100.00
69850;BME280;57144;39.652;-75.770;2022-07-10T03:26:05;100949.15;;;18.46;100.00
69850;BME280;57144;39.652;-75.770;2022-07-10T03:28:41;100951.85;;;18.50;100.00
69850;BME280;57144;39.652;-75.770;2022-07-10T03:31:04;100955.12;;;18.42;100.00
69850;BME280;57144;39.652;-75.770;2022-07-10T03:33:32;100956.57;;;18.40;100.00
69850;BME280;57144;39.652;-75.770;2022-07-10T03:35:58;100955.06;;;18.36;100.00
69850;BME280;57144;39.652;-75.770;2022-07-10T03:38:29;100952.80;;;18.15;100.00
69850;BME280;57144;39.652;-75.770;2022-07-10T03:41:01;100956.67;;;18.41;100.00
69850;BME280;57144;39.652;-75.770;2022-07-10T03:43:38;100959.46;;;18.44;100.00
69850;BME280;57144;39.652;-75.770;2022-07-10T03:46:03;100957.13;;;18.44;100.00
69850;BME280;57144;39.652;-75.770;2022-07-10T03:48:38;100956.01;;;18.38;100.00
69850;BME280;57144;39.652;-75.770;2022-07-10T03:51:02;100957.11;;;18.29;100.00
69850;BME280;57144;39.652;-75.770;2022-07-10T03:53:39;100957.78;;;18.25;100.00
69850;BME280;57144;39.652;-75.770;2022-07-10T03:56:04;100960.85;;;18.21;100.00
69850;BME280;57144;39.652;-75.770;2022-07-10T03:58:34;100966.79;;;18.42;100.00
69850;BME280;57144;39.652;-75.770;2022-07-10T04:01:05;100969.23;;;18.35;100.00
69850;BME280;57144;39.652;-75.770;2022-07-10T04:03:35;100972.96;;;18.19;100.00
69850;BME280;57144;39.652;-75.770;2022-07-10T04:06:13;100970.84;;;18.30;100.00
69850;BME280;57144;39.652;-75.770;2022-07-10T04:09:01;100970.75;;;18.06;100.00
69850;BME280;57144;39.652;-75.770;2022-07-10T04:11:14;100968.58;;;18.24;100.00
69850;BME280;57144;39.652;-75.770;2022-07-10T04:13:38;100972.50;;;18.24;100.00
69850;BME280;57144;39.652;-75.770;2022-07-10T04:16:18;100973.19;;;18.32;100.00
69850;BME280;57144;39.652;-75.770;2022-07-10T04:18:53;100969.97;;;18.38;100.00
69850;BME280;57144;39.652;-75.770;2022-07-10T04:21:14;100969.24;;;18.33;100.00
69850;BME280;57144;39.652;-75.770;2022-07-10T04:23:40;100969.96;;;18.28;100.00
69850;BME280;57144;39.652;-75.770;2022-07-10T04:26:14;100966.73;;;18.32;100.00
69850;BME280;57144;39.652;-75.770;2022-07-10T04:28:46;100959.11;;;18.44;100.00
69850;BME280;57144;39.652;-75.770;2022-07-10T04:31:12;100955.30;;;18.37;100.00
69850;BME280;57144;39.652;-75.770;2022-07-10T04:33:48;100952.19;;;18.33;100.00
69850;BME280;57144;39.652;-75.770;2022-07-10T04:36:13;100942.65;;;18.24;100.00
69850;BME280;57144;39.652;-75.770;2022-07-10T04:38:48;100931.04;;;18.23;100.00
69850;BME280;57144;39.652;-75.770;2022-07-10T04:41:15;100926.96;;;18.13;100.00
69850;BME280;57144;39.652;-75.770;2022-07-10T04:43:45;100926.44;;;18.15;100.00
69850;BME280;57144;39.652;-75.770;2022-07-10T04:46:24;100927.34;;;18.31;100.00
69850;BME280;57144;39.652;-75.770;2022-07-10T04:48:46;100927.83;;;18.18;100.00
69850;BME280;57144;39.652;-75.770;2022-07-10T04:51:17;100925.97;;;18.21;100.00
69850;BME280;57144;39.652;-75.770;2022-07-10T04:53:47;100928.81;;;18.36;100.00
69850;BME280;57144;39.652;-75.770;2022-07-10T04:56:18;100926.27;;;18.07;100.00
69850;BME280;57144;39.652;-75.770;2022-07-10T05:01:32;100915.82;;;18.12;100.00
69850;BME280;57144;39.652;-75.770;2022-07-10T05:03:49;100916.95;;;18.12;100.00
69850;BME280;57144;39.652;-75.770;2022-07-10T05:06:35;100915.94;;;18.19;100.00
69850;BME280;57144;39.652;-75.770;2022-07-10T05:08:54;100913.13;;;18.04;100.00
69850;BME280;57144;39.652;-75.770;2022-07-10T05:11:30;100910.16;;;18.12;100.00
69850;BME280;57144;39.652;-75.770;2022-07-10T05:13:52;100910.89;;;18.06;100.00
69850;BME280;57144;39.652;-75.770;2022-07-10T05:16:29;100911.60;;;18.01;100.00
69850;BME280;57144;39.652;-75.770;2022-07-10T05:19:01;100904.90;;;18.01;100.00
69850;BME280;57144;39.652;-75.770;2022-07-10T05:21:32;100900.51;;;17.96;100.00
69850;BME280;57144;39.652;-75.770;2022-07-10T05:28:56;100893.21;;;18.05;100.00
69850;BME280;57144;39.652;-75.770;2022-07-10T05:31:26;100891.94;;;18.00;100.00
69850;BME280;57144;39.652;-75.770;2022-07-10T05:34:12;100890.21;;;17.99;100.00
69850;BME280;57144;39.652;-75.770;2022-07-10T05:36:29;100889.09;;;17.91;100.00
69850;BME280;57144;39.652;-75.770;2022-07-10T05:38:58;100890.42;;;18.03;99.42
69850;BME280;57144;39.652;-75.770;2022-07-10T05:41:35;100895.88;;;17.83;100.00
69850;BME280;57144;39.652;-75.770;2022-07-10T05:43:59;100898.99;;;17.98;100.00
69850;BME280;57144;39.652;-75.770;2022-07-10T05:46:30;100898.57;;;17.95;100.00
69850;BME280;57144;39.652;-75.770;2022-07-10T05:49:11;100902.84;;;17.39;100.00
69850;BME280;57144;39.652;-75.770;2022-07-10T05:51:32;100901.76;;;17.45;100.00
69850;BME280;57144;39.652;-75.770;2022-07-10T05:54:05;100895.38;;;17.91;100.00
69850;BME280;57144;39.652;-75.770;2022-07-10T05:56:32;100893.49;;;17.80;100.00
69850;BME280;57144;39.652;-75.770;2022-07-10T05:59:04;100889.35;;;17.72;100.00
69850;BME280;57144;39.652;-75.770;2022-07-10T06:01:39;100887.85;;;17.70;100.00
69850;BME280;57144;39.652;-75.770;2022-07-10T06:04:06;100882.85;;;17.71;100.00
69850;BME280;57144;39.652;-75.770;2022-07-10T06:09:16;100885.45;;;17.82;100.00
69850;BME280;57144;39.652;-75.770;2022-07-10T06:11:39;100886.64;;;17.61;100.00
69850;BME280;57144;39.652;-75.770;2022-07-10T06:14:06;100888.61;;;17.38;100.00
69850;BME280;57144;39.652;-75.770;2022-07-10T06:16:37;100890.04;;;17.53;100.00
69850;BME280;57144;39.652;-75.770;2022-07-10T06:19:07;100893.52;;;17.43;100.00
69850;BME280;57144;39.652;-75.770;2022-07-10T06:21:48;100890.95;;;17.54;100.00
69850;BME280;57144;39.652;-75.770;2022-07-10T06:24:09;100890.12;;;17.50;100.00
69850;BME280;57144;39.652;-75.770;2022-07-10T06:26:50;100893.96;;;17.41;100.00
69850;BME280;57144;39.652;-75.770;2022-07-10T06:29:16;100898.81;;;17.52;100.00
69850;BME280;57144;39.652;-75.770;2022-07-10T06:31:49;100898.03;;;17.47;100.00
69850;BME280;57144;39.652;-75.770;2022-07-10T06:34:11;100899.57;;;17.28;100.00
69850;BME280;57144;39.652;-75.770;2022-07-10T06:39:32;100904.82;;;17.70;100.00
69850;BME280;57144;39.652;-75.770;2022-07-10T06:41:42;100902.80;;;17.34;100.00
69850;BME280;57144;39.652;-75.770;2022-07-10T06:44:13;100904.21;;;17.56;100.00
69850;BME280;57144;39.652;-75.770;2022-07-10T06:46:49;100906.40;;;17.71;100.00
69850;BME280;57144;39.652;-75.770;2022-07-10T06:49:20;100902.53;;;17.63;100.00
69850;BME280;57144;39.652;-75.770;2022-07-10T06:51:50;100900.71;;;17.66;100.00
69850;BME280;57144;39.652;-75.770;2022-07-10T06:54:20;100898.02;;;17.49;100.00
69850;BME280;57144;39.652;-75.770;2022-07-10T06:56:48;100903.66;;;17.38;100.00
69850;BME280;57144;39.652;-75.770;2022-07-10T06:59:21;100909.50;;;17.44;100.00
69850;BME280;57144;39.652;-75.770;2022-07-10T07:04:27;100916.33;;;17.49;100.00
69850;BME280;57144;39.652;-75.770;2022-07-10T07:06:48;100913.54;;;17.73;100.00
69850;BME280;57144;39.652;-75.770;2022-07-10T07:09:37;100908.15;;;17.69;100.00
69850;BME280;57144;39.652;-75.770;2022-07-10T07:11:55;100905.98;;;17.54;100.00
69850;BME280;57144;39.652;-75.770;2022-07-10T07:14:29;100899.59;;;17.56;100.00
69850;BME280;57144;39.652;-75.770;2022-07-10T07:16:51;100897.40;;;17.67;100.00
69850;BME280;57144;39.652;-75.770;2022-07-10T07:19:27;100896.59;;;17.28;100.00
69850;BME280;57144;39.652;-75.770;2022-07-10T07:22:12;100902.10;;;17.60;100.00
69850;BME280;57144;39.652;-75.770;2022-07-10T07:26:52;100900.04;;;17.48;100.00
69850;BME280;57144;39.652;-75.770;2022-07-10T07:29:23;100901.38;;;17.56;100.00
69850;BME280;57144;39.652;-75.770;2022-07-10T07:32:01;100904.66;;;17.76;100.00
69850;BME280;57144;39.652;-75.770;2022-07-10T07:34:31;100900.80;;;17.73;100.00
69850;BME280;57144;39.652;-75.770;2022-07-10T07:36:55;100897.12;;;17.59;100.00
69850;BME280;57144;39.652;-75.770;2022-07-10T07:42:03;100898.75;;;17.66;100.00
69850;BME280;57144;39.652;-75.770;2022-07-10T07:44:26;100891.47;;;17.26;100.00
69850;BME280;57144;39.652;-75.770;2022-07-10T07:46:57;100888.65;;;17.37;100.00
69850;BME280;57144;39.652;-75.770;2022-07-10T07:49:28;100893.83;;;17.62;100.00
69850;BME280;57144;39.652;-75.770;2022-07-10T07:51:58;100893.45;;;17.73;100.00
69850;BME280;57144;39.652;-75.770;2022-07-10T07:54:44;100892.08;;;17.63;100.00
69850;BME280;57144;39.652;-75.770;2022-07-10T07:56:59;100888.74;;;17.33;100.00
69850;BME280;57144;39.652;-75.770;2022-07-10T08:02:00;100888.43;;;17.39;100.00
69850;BME280;57144;39.652;-75.770;2022-07-10T08:04:32;100887.86;;;17.49;100.00
69850;BME280;57144;39.652;-75.770;2022-07-10T08:07:02;100885.73;;;17.61;100.00
69850;BME280;57144;39.652;-75.770;2022-07-10T08:09:32;100887.88;;;17.55;100.00
69850;BME280;57144;39.652;-75.770;2022-07-10T08:14:34;100885.91;;;17.13;100.00
69850;BME280;57144;39.652;-75.770;2022-07-10T08:17:11;100884.90;;;17.26;100.00
69850;BME280;57144;39.652;-75.770;2022-07-10T08:19:35;100885.08;;;17.31;100.00
69850;BME280;57144;39.652;-75.770;2022-07-10T08:22:10;100884.45;;;17.31;100.00
69850;BME280;57144;39.652;-75.770;2022-07-10T08:24:40;100886.45;;;17.58;100.00
69850;BME280;57144;39.652;-75.770;2022-07-10T08:27:11;100888.20;;;17.56;100.00
69850;BME280;57144;39.652;-75.770;2022-07-10T08:29:37;100885.37;;;17.34;100.00
69850;BME280;57144;39.652;-75.770;2022-07-10T08:32:08;100884.04;;;17.29;100.00
69850;BME280;57144;39.652;-75.770;2022-07-10T08:34:38;100888.79;;;17.34;100.00
69850;BME280;57144;39.652;-75.770;2022-07-10T08:37:16;100887.17;;;17.15;100.00
69850;BME280;57144;39.652;-75.770;2022-07-10T08:39:46;100885.76;;;17.16;100.00
69850;BME280;57144;39.652;-75.770;2022-07-10T08:42:10;100888.90;;;17.29;100.00
69850;BME280;57144;39.652;-75.770;2022-07-10T08:44:51;100899.82;;;17.62;100.00
69850;BME280;57144;39.652;-75.770;2022-07-10T08:47:12;100899.64;;;16.98;100.00
69850;BME280;57144;39.652;-75.770;2022-07-10T08:49:49;100897.02;;;17.20;100.00
69850;BME280;57144;39.652;-75.770;2022-07-10T08:52:23;100897.74;;;17.51;100.00
69850;BME280;57144;39.652;-75.770;2022-07-10T08:54:43;100895.83;;;17.66;100.00
69850;BME280;57144;39.652;-75.770;2022-07-10T08:57:40;100899.89;;;17.50;100.00
69850;BME280;57144;39.652;-75.770;2022-07-10T08:59:45;100901.28;;;16.92;100.00
69850;BME280;57144;39.652;-75.770;2022-07-10T09:02:37;100900.47;;;17.39;100.00
69850;BME280;57144;39.652;-75.770;2022-07-10T09:04:51;100903.65;;;17.37;100.00
69850;BME280;57144;39.652;-75.770;2022-07-10T09:07:16;100909.02;;;17.41;100.00
69850;BME280;57144;39.652;-75.770;2022-07-10T09:09:52;100910.46;;;17.51;100.00
69850;BME280;57144;39.652;-75.770;2022-07-10T09:12:17;100902.51;;;17.11;100.00
69850;BME280;57144;39.652;-75.770;2022-07-10T09:14:48;100893.78;;;16.89;100.00
69850;BME280;57144;39.652;-75.770;2022-07-10T09:17:19;100893.30;;;17.20;100.00
69850;BME280;57144;39.652;-75.770;2022-07-10T09:19:49;100893.21;;;17.22;100.00
69850;BME280;57144;39.652;-75.770;2022-07-10T09:22:29;100894.24;;;17.10;100.00
69850;BME280;57144;39.652;-75.770;2022-07-10T09:24:54;100897.44;;;17.25;100.00
69850;BME280;57144;39.652;-75.770;2022-07-10T09:27:21;100902.43;;;17.38;100.00
69850;BME280;57144;39.652;-75.770;2022-07-10T09:29:52;100907.55;;;17.13;100.00
69850;BME280;57144;39.652;-75.770;2022-07-10T09:32:23;100909.19;;;17.25;100.00
69850;BME280;57144;39.652;-75.770;2022-07-10T09:35:07;100912.17;;;16.66;100.00
69850;BME280;57144;39.652;-75.770;2022-07-10T09:37:26;100915.25;;;16.60;100.00
69850;BME280;57144;39.652;-75.770;2022-07-10T09:39:57;100919.73;;;16.44;100.00
69850;BME280;57144;39.652;-75.770;2022-07-10T09:42:30;100919.83;;;15.90;100.00
69850;BME280;57144;39.652;-75.770;2022-07-10T09:47:26;100920.84;;;16.50;100.00
69850;BME280;57144;39.652;-75.770;2022-07-10T09:50:03;100927.48;;;17.00;100.00
69850;BME280;57144;39.652;-75.770;2022-07-10T09:52:28;100932.30;;;16.67;100.00
69850;BME280;57144;39.652;-75.770;2022-07-10T09:55:00;100932.72;;;17.11;100.00
69850;BME280;57144;39.652;-75.770;2022-07-10T09:57:33;100929.82;;;16.74;100.00
69850;BME280;57144;39.652;-75.770;2022-07-10T10:00:04;100927.72;;;17.14;100.00
69850;BME280;57144;39.652;-75.770;2022-07-10T10:02:29;100925.46;;;16.80;100.00
69850;BME280;57144;39.652;-75.770;2022-07-10T10:05:00;100924.08;;;17.11;100.00
69850;BME280;57144;39.652;-75.770;2022-07-10T10:07:33;100928.60;;;16.74;100.00
69850;BME280;57144;39.652;-75.770;2022-07-10T10:10:02;100927.70;;;16.53;100.00
69850;BME280;57144;39.652;-75.770;2022-07-10T10:12:35;100931.39;;;16.77;100.00
69850;BME280;57144;39.652;-75.770;2022-07-10T10:15:08;100931.67;;;16.84;100.00
69850;BME280;57144;39.652;-75.770;2022-07-10T10:17:35;100931.05;;;17.27;100.00
69850;BME280;57144;39.652;-75.770;2022-07-10T10:20:07;100938.47;;;17.20;100.00
69850;BME280;57144;39.652;-75.770;2022-07-10T10:22:34;100944.70;;;16.90;100.00
69850;BME280;57144;39.652;-75.770;2022-07-10T10:25:05;100949.99;;;16.75;100.00
69850;BME280;57144;39.652;-75.770;2022-07-10T10:27:35;100949.59;;;17.07;100.00
69850;BME280;57144;39.652;-75.770;2022-07-10T10:30:16;100951.20;;;16.43;100.00
69850;BME280;57144;39.652;-75.770;2022-07-10T10:32:41;100950.61;;;17.09;100.00
69850;BME280;57144;39.652;-75.770;2022-07-10T10:35:07;100949.85;;;16.34;100.00
69850;BME280;57144;39.652;-75.770;2022-07-10T10:37:50;100950.76;;;16.93;100.00
69850;BME280;57144;39.652;-75.770;2022-07-10T10:50:11;100962.72;;;16.91;100.00
69850;BME280;57144;39.652;-75.770;2022-07-10T10:55:12;100960.75;;;17.29;100.00
69850;BME280;57144;39.652;-75.770;2022-07-10T11:00:29;100966.80;;;17.00;100.00
69850;BME280;57144;39.652;-75.770;2022-07-10T11:02:45;100971.79;;;16.32;100.00
69850;BME280;57144;39.652;-75.770;2022-07-10T11:07:51;100971.20;;;17.24;100.00
69850;BME280;57144;39.652;-75.770;2022-07-10T11:12:58;100975.20;;;16.85;100.00
69850;BME280;57144;39.652;-75.770;2022-07-10T11:15:18;100974.22;;;17.63;100.00
69850;BME280;57144;39.652;-75.770;2022-07-10T11:17:53;100979.21;;;18.07;100.00
69850;BME280;57144;39.652;-75.770;2022-07-10T11:20:20;100981.81;;;17.93;100.00
69850;BME280;57144;39.652;-75.770;2022-07-10T11:23:00;100985.46;;;17.62;100.00
69850;BME280;57144;39.652;-75.770;2022-07-10T11:25:41;100983.85;;;17.40;100.00
69850;BME280;57144;39.652;-75.770;2022-07-10T11:28:05;100983.71;;;17.68;100.00
69850;BME280;57144;39.652;-75.770;2022-07-10T11:30:21;100986.10;;;17.81;100.00
69850;BME280;57144;39.652;-75.770;2022-07-10T11:32:51;100984.28;;;17.47;100.00
69850;BME280;57144;39.652;-75.770;2022-07-10T11:35:27;100988.13;;;17.79;100.00
69850;BME280;57144;39.652;-75.770;2022-07-10T11:37:53;100990.99;;;18.41;100.00
69850;BME280;57144;39.652;-75.770;2022-07-10T11:40:28;100993.60;;;18.19;100.00
69850;BME280;57144;39.652;-75.770;2022-07-10T11:42:57;100997.67;;;17.33;100.00
69850;BME280;57144;39.652;-75.770;2022-07-10T11:45:32;101001.49;;;18.02;100.00
69850;BME280;57144;39.652;-75.770;2022-07-10T11:47:58;101002.56;;;18.01;100.00
69850;BME280;57144;39.652;-75.770;2022-07-10T11:50:33;101005.93;;;18.41;100.00
69850;BME280;57144;39.652;-75.770;2022-07-10T11:52:58;101006.35;;;18.82;100.00
69850;BME280;57144;39.652;-75.770;2022-07-10T11:55:28;101004.24;;;18.51;100.00
69850;BME280;57144;39.652;-75.770;2022-07-10T11:57:58;101010.44;;;18.93;100.00
69850;BME280;57144;39.652;-75.770;2022-07-10T12:00:29;101009.38;;;18.83;100.00
69850;BME280;57144;39.652;-75.770;2022-07-10T12:05:42;101023.30;;;19.33;100.00
69850;BME280;57144;39.652;-75.770;2022-07-10T12:08:11;101027.38;;;19.13;100.00
69850;BME280;57144;39.652;-75.770;2022-07-10T12:10:32;101036.47;;;18.68;100.00
69850;BME280;57144;39.652;-75.770;2022-07-10T12:13:05;101039.67;;;19.32;100.00
69850;BME280;57144;39.652;-75.770;2022-07-10T12:15:34;101041.15;;;19.47;100.00
69850;BME280;57144;39.652;-75.770;2022-07-10T12:18:05;101042.43;;;19.73;100.00
69850;BME280;57144;39.652;-75.770;2022-07-10T12:20:35;101043.45;;;19.63;100.00
69850;BME280;57144;39.652;-75.770;2022-07-10T12:23:06;101040.61;;;19.03;100.00
69850;BME280;57144;39.652;-75.770;2022-07-10T12:25:35;101043.04;;;19.14;100.00
69850;BME280;57144;39.652;-75.770;2022-07-10T12:30:46;101044.96;;;20.02;100.00
69850;BME280;57144;39.652;-75.770;2022-07-10T12:33:12;101044.09;;;19.55;100.00
69850;BME280;57144;39.652;-75.770;2022-07-10T12:35:48;101049.44;;;20.01;100.00
69850;BME280;57144;39.652;-75.770;2022-07-10T12:38:14;101058.80;;;19.81;100.00
69850;BME280;57144;39.652;-75.770;2022-07-10T12:40:40;101061.54;;;20.16;98.58
69850;BME280;57144;39.652;-75.770;2022-07-10T12:45:40;101059.71;;;19.88;98.91
69850;BME280;57144;39.652;-75.770;2022-07-10T12:48:21;101051.10;;;20.15;98.13
69850;BME280;57144;39.652;-75.770;2022-07-10T12:50:43;101052.61;;;19.89;99.30
69850;BME280;57144;39.652;-75.770;2022-07-10T12:53:13;101050.64;;;20.34;97.81
69850;BME280;57144;39.652;-75.770;2022-07-10T12:55:43;101051.34;;;20.72;97.46
